createdAt,value
2023-02-12T00:01:18.274Z,102413.22
2023-02-12T00:03:45.605Z,102407.22
2023-02-12T00:06:15.532Z,102408.06
2023-02-12T00:08:43.227Z,102401.88
2023-02-12T00:11:17.551Z,102409.22
2023-02-12T00:13:45.160Z,102397.28
2023-02-12T00:16:15.924Z,102403.03
2023-02-12T00:18:43.521Z,102407.94
2023-02-12T00:21:11.625Z,102405.16
2023-02-12T00:23:41.215Z,102408.91
2023-02-12T00:26:11.237Z,102407.94
2023-02-12T00:28:38.768Z,102415.75
2023-02-12T00:31:16.665Z,102407.94
2023-02-12T00:33:44.138Z,102410.50
2023-02-12T00:36:16.827Z,102415.81
2023-02-12T00:38:44.798Z,102415.34
2023-02-12T00:41:12.897Z,102416.16
2023-02-12T00:43:39.869Z,102409.34
2023-02-12T00:46:07.072Z,102412.28
2023-02-12T00:48:35.521Z,102418.03
2023-02-12T00:51:03.019Z,102422.94
2023-02-12T00:53:30.941Z,102420.84
2023-02-12T00:55:58.656Z,102412.31
2023-02-12T00:58:25.600Z,102427.44
2023-02-12T01:00:53.793Z,102428.94
2023-02-12T01:03:21.296Z,102431.75
2023-02-12T01:05:48.311Z,102429.91
2023-02-12T01:08:17.073Z,102431.50
2023-02-12T01:10:44.941Z,102438.22
2023-02-12T01:13:15.876Z,102437.44
2023-02-12T01:15:43.013Z,102442.06
2023-02-12T01:18:10.106Z,102458.88
2023-02-12T01:20:37.152Z,102449.81
2023-02-12T01:23:06.925Z,102445.19
2023-02-12T01:25:34.126Z,102448.03
2023-02-12T01:28:01.061Z,102445.25
2023-02-12T01:30:27.969Z,102444.47
2023-02-12T01:32:55.576Z,102443.13
2023-02-12T01:35:22.553Z,102433.50
2023-02-12T01:37:49.459Z,102429.38
2023-02-12T01:40:18.827Z,102435.25
2023-02-12T01:42:45.764Z,102424.59
2023-02-12T01:45:12.724Z,102420.47
2023-02-12T01:47:41.461Z,102417.94
2023-02-12T01:50:12.681Z,102418.19
2023-02-12T01:52:45.160Z,102417.56
2023-02-12T01:55:13.606Z,102415.31
2023-02-12T01:57:46.081Z,102412.00
2023-02-12T02:00:25.349Z,102420.72
2023-02-12T02:02:57.282Z,102408.59
2023-02-12T02:05:44.313Z,102410.41
2023-02-12T02:08:12.545Z,102416.69
2023-02-12T02:10:39.709Z,102413.88
2023-02-12T02:13:25.524Z,102419.88
2023-02-12T02:16:00.496Z,102415.72
2023-02-12T02:18:45.495Z,102407.00
2023-02-12T02:21:36.877Z,102411.84
2023-02-12T02:24:51.309Z,102417.59
2023-02-12T02:27:50.975Z,102414.09
2023-02-12T02:30:34.555Z,102415.91
2023-02-12T02:33:47.847Z,102400.16
2023-02-12T02:36:18.175Z,102403.78
2023-02-12T02:38:53.520Z,102412.28
2023-02-12T02:41:31.272Z,102409.19
2023-02-12T02:44:00.002Z,102406.22
2023-02-12T02:46:42.926Z,102401.28
2023-02-12T02:49:20.088Z,102405.25
2023-02-12T02:51:54.794Z,102407.13
2023-02-12T02:54:54.103Z,102399.38
2023-02-12T02:57:31.020Z,102399.56
2023-02-12T03:00:26.456Z,102405.38
2023-02-12T03:03:02.625Z,102397.97
2023-02-12T03:05:35.821Z,102399.22
2023-02-12T03:08:27.166Z,102395.06
2023-02-12T03:11:23.133Z,102389.53
2023-02-12T03:14:03.018Z,102385.88
2023-02-12T03:16:40.780Z,102383.50
2023-02-12T03:19:32.909Z,102389.63
2023-02-12T03:22:23.469Z,102393.31
2023-02-12T03:25:05.636Z,102388.63
2023-02-12T03:27:38.839Z,102395.03
2023-02-12T03:30:07.902Z,102396.09
2023-02-12T03:32:53.202Z,102393.06
2023-02-12T03:35:27.749Z,102391.97
2023-02-12T03:38:13.643Z,102390.19
2023-02-12T03:41:11.995Z,102396.09
2023-02-12T03:43:50.472Z,102393.94
2023-02-12T03:46:52.081Z,102394.78
2023-02-12T03:49:34.850Z,102394.78
2023-02-12T03:52:03.274Z,102401.41
2023-02-12T03:54:30.482Z,102410.34
2023-02-12T03:57:08.725Z,102403.25
2023-02-12T03:59:38.296Z,102406.78
2023-02-12T04:02:05.912Z,102402.09
2023-02-12T04:04:33.480Z,102402.22
2023-02-12T04:07:01.045Z,102406.09
2023-02-12T04:09:29.215Z,102407.59
2023-02-12T04:12:57.484Z,102411.81
2023-02-12T04:16:33.310Z,102406.13
2023-02-12T04:19:01.628Z,102411.06
2023-02-12T04:22:19.568Z,102408.91
2023-02-12T04:25:04.168Z,102405.88
2023-02-12T04:28:11.102Z,102415.78
2023-02-12T04:30:48.670Z,102415.19
2023-02-12T04:33:21.343Z,102426.41
2023-02-12T04:36:03.738Z,102424.94
2023-02-12T04:38:44.841Z,102425.88
2023-02-12T04:41:12.100Z,102428.16
2023-02-12T04:43:39.008Z,102430.69
2023-02-12T04:46:08.644Z,102427.00
2023-02-12T04:48:48.037Z,102429.00
2023-02-12T04:51:14.924Z,102425.97
2023-02-12T04:53:41.784Z,102428.78
2023-02-12T04:56:13.110Z,102421.09
2023-02-12T04:58:41.366Z,102420.25
2023-02-12T05:01:10.262Z,102422.94
2023-02-12T05:03:37.676Z,102430.22
2023-02-12T05:06:07.523Z,102428.69
2023-02-12T05:08:34.640Z,102426.16
2023-02-12T05:11:09.874Z,102438.41
2023-02-12T05:13:37.630Z,102422.63
2023-02-12T05:16:07.228Z,102419.50
2023-02-12T05:18:36.406Z,102422.16
2023-02-12T05:21:05.290Z,102425.66
2023-02-12T05:23:35.803Z,102416.34
2023-02-12T05:26:06.945Z,102418.03
2023-02-12T05:28:34.107Z,102422.19
2023-02-12T05:31:08.537Z,102414.69
2023-02-12T05:33:35.856Z,102417.00
2023-02-12T05:36:13.140Z,102419.78
2023-02-12T05:38:40.354Z,102422.41
2023-02-12T05:41:11.438Z,102421.13
2023-02-12T05:43:38.766Z,102417.59
2023-02-12T05:46:06.971Z,102416.31
2023-02-12T05:48:35.354Z,102416.69
2023-02-12T05:51:11.244Z,102416.31
2023-02-12T05:53:40.340Z,102413.56
2023-02-12T05:56:13.723Z,102418.72
2023-02-12T05:58:44.129Z,102420.63
2023-02-12T06:01:27.880Z,102419.97
2023-02-12T06:03:55.620Z,102417.38
2023-02-12T06:06:26.335Z,102419.00
2023-02-12T06:08:53.560Z,102411.97
2023-02-12T06:11:20.908Z,102423.59
2023-02-12T06:13:48.577Z,102417.06
2023-02-12T06:16:28.169Z,102424.66
2023-02-12T06:18:56.512Z,102425.25
2023-02-12T06:21:25.875Z,102426.16
2023-02-12T06:23:53.302Z,102431.41
2023-02-12T06:26:21.673Z,102432.91
2023-02-12T06:28:49.658Z,102434.31
2023-02-12T06:31:28.546Z,102430.03
2023-02-12T06:34:00.830Z,102431.84
2023-02-12T06:36:27.856Z,102439.69
2023-02-12T06:38:54.849Z,102438.25
2023-02-12T06:41:22.928Z,102441.50
2023-02-12T06:43:50.090Z,102443.94
2023-02-12T06:46:17.482Z,102446.19
2023-02-12T06:48:44.465Z,102443.13
2023-02-12T06:51:22.961Z,102445.69
2023-02-12T06:53:53.152Z,102448.63
2023-02-12T06:56:22.380Z,102450.84
2023-02-12T06:58:58.220Z,102449.75
2023-02-12T07:01:27.986Z,102458.09
2023-02-12T07:04:02.097Z,102460.00
2023-02-12T07:06:31.728Z,102456.41
2023-02-12T07:08:59.367Z,102456.94
2023-02-12T07:11:30.574Z,102461.94
2023-02-12T07:13:57.565Z,102460.63
2023-02-12T07:16:25.241Z,102458.31
2023-02-12T07:18:52.501Z,102463.59
2023-02-12T07:21:20.458Z,102458.31
2023-02-12T07:23:52.860Z,102464.28
2023-02-12T07:26:21.856Z,102462.25
2023-02-12T07:28:50.895Z,102470.56
2023-02-12T07:31:23.564Z,102470.78
2023-02-12T07:33:57.895Z,102469.09
2023-02-12T07:36:27.296Z,102470.28
2023-02-12T07:38:55.336Z,102469.19
2023-02-12T07:41:31.945Z,102467.53
2023-02-12T07:44:07.505Z,102463.00
2023-02-12T07:46:53.920Z,102463.97
2023-02-12T07:49:22.528Z,102464.03
2023-02-12T07:51:50.474Z,102459.00
2023-02-12T07:54:17.751Z,102459.06
2023-02-12T07:56:47.118Z,102458.41
2023-02-12T07:59:17.524Z,102464.81
2023-02-12T08:01:51.572Z,102464.88
2023-02-12T08:04:22.226Z,102468.28
2023-02-12T08:06:52.309Z,102465.75
2023-02-12T08:09:22.930Z,102468.56
2023-02-12T08:11:50.281Z,102464.16
2023-02-12T08:14:20.410Z,102470.03
2023-02-12T08:16:49.125Z,102472.66
2023-02-12T08:19:21.694Z,102472.88
2023-02-12T08:21:54.350Z,102467.66
2023-02-12T08:24:24.498Z,102467.84
2023-02-12T08:26:52.352Z,102477.72
2023-02-12T08:29:24.516Z,102475.84
2023-02-12T08:31:57.321Z,102479.06
2023-02-12T08:34:34.934Z,102477.31
2023-02-12T08:37:02.375Z,102464.63
2023-02-12T08:39:30.640Z,102466.94
2023-02-12T08:41:59.352Z,102468.44
2023-02-12T08:44:26.520Z,102466.63
2023-02-12T08:46:55.703Z,102465.81
2023-02-12T08:49:29.144Z,102469.25
2023-02-12T08:51:59.141Z,102467.59
2023-02-12T08:54:30.083Z,102466.00
2023-02-12T08:56:59.183Z,102471.47
2023-02-12T08:59:26.568Z,102467.44
2023-02-12T09:01:54.504Z,102472.50
2023-02-12T09:04:25.142Z,102478.94
2023-02-12T09:06:53.084Z,102478.72
2023-02-12T09:09:20.821Z,102475.34
2023-02-12T09:11:48.297Z,102479.34
2023-02-12T09:14:18.851Z,102479.28
2023-02-12T09:16:45.965Z,102482.53
2023-02-12T09:19:14.922Z,102485.63
2023-02-12T09:21:42.810Z,102485.47
2023-02-12T09:24:10.526Z,102484.41
2023-02-12T09:26:37.450Z,102482.31
2023-02-12T09:29:05.120Z,102482.72
2023-02-12T09:31:33.348Z,102489.38
2023-02-12T09:34:05.062Z,102486.97
2023-02-12T09:36:32.945Z,102491.44
2023-02-12T09:39:00.530Z,102484.38
2023-02-12T09:41:51.988Z,102479.41
2023-02-12T09:44:37.110Z,102485.28
2023-02-12T09:47:09.993Z,102486.25
2023-02-12T09:49:51.802Z,102493.25
2023-02-12T09:52:24.786Z,102492.00
2023-02-12T09:54:51.879Z,102500.28
2023-02-12T09:57:35.114Z,102491.06
2023-02-12T10:00:25.474Z,102488.03
2023-02-12T10:02:53.696Z,102487.72
2023-02-12T10:05:35.016Z,102482.53
2023-02-12T10:08:39.910Z,102490.75
2023-02-12T10:11:28.642Z,102483.66
2023-02-12T10:14:21.330Z,102479.47
2023-02-12T10:17:12.896Z,102478.97
2023-02-12T10:19:57.552Z,102481.00
2023-02-12T10:22:57.349Z,102473.00
2023-02-12T10:26:00.682Z,102475.41
2023-02-12T10:28:34.958Z,102480.78
2023-02-12T10:31:37.911Z,102480.13
2023-02-12T10:34:20.297Z,102464.41
2023-02-12T10:36:50.019Z,102457.22
2023-02-12T10:39:48.928Z,102456.41
2023-02-12T10:42:24.398Z,102447.13
2023-02-12T10:44:51.525Z,102446.09
2023-02-12T10:47:22.041Z,102436.44
2023-02-12T10:49:57.977Z,102438.09
2023-02-12T10:52:55.394Z,102432.13
2023-02-12T10:55:32.433Z,102438.84
2023-02-12T10:58:01.699Z,102431.91
2023-02-12T11:00:37.842Z,102435.44
2023-02-12T11:03:19.919Z,102430.16
2023-02-12T11:05:48.109Z,102432.16
2023-02-12T11:08:38.377Z,102420.88
2023-02-12T11:11:12.772Z,102414.44
2023-02-12T11:13:45.819Z,102414.47
2023-02-12T11:16:13.602Z,102415.97
2023-02-12T11:18:41.942Z,102419.75
2023-02-12T11:21:11.874Z,102416.56
2023-02-12T11:23:45.174Z,102412.22
2023-02-12T11:26:18.261Z,102420.28
2023-02-12T11:28:59.397Z,102408.50
2023-02-12T11:31:30.069Z,102412.47
2023-02-12T11:34:09.576Z,102395.38
2023-02-12T11:36:49.572Z,102409.44
2023-02-12T11:39:36.967Z,102392.59
2023-02-12T11:42:16.446Z,102401.97
2023-02-12T11:44:55.843Z,102391.16
2023-02-12T11:47:27.685Z,102398.19
2023-02-12T11:50:03.352Z,102387.53
2023-02-12T11:52:34.293Z,102387.63
2023-02-12T11:55:07.384Z,102389.25
2023-02-12T11:57:47.469Z,102392.44
2023-02-12T12:00:23.015Z,102384.56
2023-02-12T12:03:01.669Z,102384.19
2023-02-12T12:05:36.931Z,102378.16
2023-02-12T12:08:18.778Z,102371.53
2023-02-12T12:10:57.384Z,102376.66
2023-02-12T12:13:34.555Z,102359.66
2023-02-12T12:16:36.786Z,102362.59
2023-02-12T12:19:37.554Z,102365.94
2023-02-12T12:22:41.925Z,102371.66
2023-02-12T12:25:23.054Z,102369.91
2023-02-12T12:28:17.632Z,102359.50
2023-02-12T12:31:19.848Z,102349.97
2023-02-12T12:34:15.134Z,102346.16
2023-02-12T12:37:29.368Z,102347.03
2023-02-12T12:40:20.441Z,102349.19
2023-02-12T12:43:03.525Z,102352.31
2023-02-12T12:45:50.273Z,102342.47
2023-02-12T12:48:54.588Z,102354.47
2023-02-12T12:51:34.737Z,102349.72
2023-02-12T12:54:45.443Z,102323.72
2023-02-12T12:57:44.418Z,102321.53
2023-02-12T13:00:32.541Z,102324.50
2023-02-12T13:03:09.193Z,102336.69
2023-02-12T13:06:36.417Z,102306.16
2023-02-12T13:09:36.853Z,102291.16
2023-02-12T13:12:11.601Z,102292.66
2023-02-12T13:15:13.666Z,102282.25
2023-02-12T13:17:51.484Z,102288.00
2023-02-12T13:20:36.621Z,102288.28
2023-02-12T13:23:16.064Z,102280.28
2023-02-12T13:26:04.537Z,102280.91
2023-02-12T13:28:41.561Z,102288.63
2023-02-12T13:31:31.795Z,102291.72
2023-02-12T13:34:04.780Z,102302.22
2023-02-12T13:36:33.530Z,102293.22
2023-02-12T13:39:16.808Z,102288.34
2023-02-12T13:41:54.631Z,102297.41
2023-02-12T13:44:37.279Z,102297.81
2023-02-12T13:47:28.341Z,102289.47
2023-02-12T13:50:40.010Z,102278.63
2023-02-12T13:53:22.709Z,102289.78
2023-02-12T13:56:12.110Z,102270.81
2023-02-12T13:58:40.320Z,102289.28
2023-02-12T14:01:14.573Z,102285.59
2023-02-12T14:03:41.890Z,102288.00
2023-02-12T14:06:18.689Z,102282.50
2023-02-12T14:08:51.624Z,102274.06
2023-02-12T14:11:23.334Z,102272.84
2023-02-12T14:14:03.150Z,102273.78
2023-02-12T14:16:29.943Z,102275.28
2023-02-12T14:19:38.425Z,102273.78
2023-02-12T14:22:31.428Z,102280.75
2023-02-12T14:25:32.057Z,102284.88
2023-02-12T14:28:18.559Z,102273.78
2023-02-12T14:30:45.686Z,102282.31
2023-02-12T14:33:27.261Z,102270.34
2023-02-12T14:36:39.094Z,102272.84
2023-02-12T14:39:21.188Z,102264.59
2023-02-12T14:42:11.965Z,102266.25
2023-02-12T14:44:46.010Z,102273.13
2023-02-12T14:47:32.795Z,102266.47
2023-02-12T14:50:21.462Z,102274.97
2023-02-12T14:52:55.809Z,102268.13
2023-02-12T14:55:28.591Z,102270.00
2023-02-12T14:58:03.744Z,102260.09
2023-02-12T15:00:41.654Z,102259.66
2023-02-12T15:03:14.985Z,102258.75
2023-02-12T15:05:58.268Z,102257.03
2023-02-12T15:08:36.411Z,102261.59
2023-02-12T15:11:33.805Z,102250.28
2023-02-12T15:14:06.914Z,102251.06
2023-02-12T15:16:42.987Z,102245.97
2023-02-12T15:19:46.087Z,102251.31
2023-02-12T15:22:39.227Z,102257.88
2023-02-12T15:25:32.064Z,102257.78
2023-02-12T15:28:05.168Z,102258.31
2023-02-12T15:30:35.754Z,102251.75
2023-02-12T15:33:07.630Z,102256.00
2023-02-12T15:35:38.241Z,102252.66
2023-02-12T15:38:07.748Z,102259.34
2023-02-12T15:40:34.911Z,102253.53
2023-02-12T15:43:15.569Z,102255.59
2023-02-12T15:45:52.246Z,102262.03
2023-02-12T15:48:29.763Z,102248.00
2023-02-12T15:51:15.224Z,102248.16
2023-02-12T15:53:43.367Z,102255.78
2023-02-12T15:56:18.232Z,102252.25
2023-02-12T15:58:52.955Z,102252.75
2023-02-12T16:01:41.946Z,102257.72
2023-02-12T16:04:12.126Z,102257.53
2023-02-12T16:06:41.764Z,102252.91
2023-02-12T16:09:19.281Z,102244.66
2023-02-12T16:11:48.249Z,102247.44
2023-02-12T16:14:32.105Z,102261.25
2023-02-12T16:16:59.787Z,102262.13
2023-02-12T16:19:36.947Z,102265.28
2023-02-12T16:22:15.915Z,102267.47
2023-02-12T16:24:56.526Z,102271.91
2023-02-12T16:27:33.675Z,102279.91
2023-02-12T16:30:38.743Z,102270.81
2023-02-12T16:33:32.172Z,102267.78
2023-02-12T16:36:19.835Z,102277.28
2023-02-12T16:38:55.767Z,102271.34
2023-02-12T16:41:23.696Z,102280.75
2023-02-12T16:44:02.792Z,102280.13
2023-02-12T16:46:33.950Z,102291.88
2023-02-12T16:49:02.483Z,102296.34
2023-02-12T16:51:31.358Z,102295.16
2023-02-12T16:54:04.832Z,102293.00
2023-02-12T16:56:38.632Z,102296.50
2023-02-12T16:59:05.774Z,102291.56
2023-02-12T17:01:36.591Z,102301.13
2023-02-12T17:04:13.565Z,102300.00
2023-02-12T17:06:40.492Z,102289.34
2023-02-12T17:09:07.535Z,102297.25
2023-02-12T17:11:34.601Z,102301.28
2023-02-12T17:14:01.486Z,102293.63
2023-02-12T17:16:31.328Z,102287.81
2023-02-12T17:19:00.288Z,102296.81
2023-02-12T17:21:38.387Z,102287.25
2023-02-12T17:24:15.653Z,102295.81
2023-02-12T17:26:42.582Z,102300.75
2023-02-12T17:29:09.523Z,102310.16
2023-02-12T17:31:37.606Z,102311.75
2023-02-12T17:34:05.645Z,102314.31
2023-02-12T17:36:33.293Z,102327.31
2023-02-12T17:39:01.151Z,102327.22
2023-02-12T17:41:28.194Z,102324.13
2023-02-12T17:43:55.265Z,102332.16
2023-02-12T17:46:25.571Z,102333.56
2023-02-12T17:48:52.638Z,102332.13
2023-02-12T17:51:19.854Z,102325.94
2023-02-12T17:53:47.497Z,102325.81
2023-02-12T17:56:19.933Z,102338.31
2023-02-12T17:58:48.330Z,102332.34
2023-02-12T18:01:18.830Z,102340.28
2023-02-12T18:03:46.196Z,102332.16
2023-02-12T18:06:16.526Z,102336.47
2023-02-12T18:08:43.746Z,102329.91
2023-02-12T18:11:12.079Z,102338.16
2023-02-12T18:13:39.682Z,102342.75
2023-02-12T18:16:09.312Z,102341.19
2023-02-12T18:18:37.494Z,102336.00
2023-02-12T18:21:15.649Z,102341.91
2023-02-12T18:23:43.836Z,102347.69
2023-02-12T18:26:14.930Z,102333.53
2023-02-12T18:28:42.584Z,102344.53
2023-02-12T18:31:10.969Z,102343.06
2023-02-12T18:33:38.222Z,102332.06
2023-02-12T18:36:08.160Z,102334.53
2023-02-12T18:38:37.794Z,102331.13
2023-02-12T18:41:11.135Z,102329.44
2023-02-12T18:43:38.634Z,102335.50
2023-02-12T18:46:13.453Z,102329.53
2023-02-12T18:48:41.314Z,102336.53
2023-02-12T18:51:11.062Z,102329.97
2023-02-12T18:53:38.061Z,102337.63
2023-02-12T18:56:08.240Z,102340.50
2023-02-12T18:58:35.977Z,102342.44
2023-02-12T19:01:20.021Z,102341.97
2023-02-12T19:03:50.925Z,102333.56
2023-02-12T19:06:17.895Z,102337.22
2023-02-12T19:08:44.780Z,102341.47
2023-02-12T19:11:14.778Z,102347.69
2023-02-12T19:13:42.468Z,102342.31
2023-02-12T19:16:15.686Z,102339.53
2023-02-12T19:18:42.806Z,102339.34
2023-02-12T19:21:13.425Z,102348.75
2023-02-12T19:23:40.624Z,102341.09
2023-02-12T19:26:16.690Z,102342.06
2023-02-12T19:28:43.896Z,102348.19
2023-02-12T19:31:23.428Z,102348.03
2023-02-12T19:33:55.309Z,102343.50
2023-02-12T19:36:22.288Z,102351.66
2023-02-12T19:38:49.582Z,102339.44
2023-02-12T19:41:23.140Z,102352.53
2023-02-12T19:44:00.825Z,102344.28
2023-02-12T19:46:31.359Z,102352.41
2023-02-12T19:49:01.201Z,102355.72
2023-02-12T19:51:29.899Z,102343.75
2023-02-12T19:54:04.641Z,102359.53
2023-02-12T19:56:31.738Z,102352.75
2023-02-12T19:58:59.424Z,102358.22
2023-02-12T20:01:27.396Z,102363.47
2023-02-12T20:03:55.006Z,102366.19
2023-02-12T20:06:26.950Z,102366.56
2023-02-12T20:08:55.463Z,102362.19
2023-02-12T20:11:25.757Z,102368.56
2023-02-12T20:13:53.269Z,102359.91
2023-02-12T20:16:23.665Z,102359.41
2023-02-12T20:18:54.098Z,102355.66
2023-02-12T20:21:25.408Z,102364.19
2023-02-12T20:23:52.453Z,102358.34
2023-02-12T20:26:20.558Z,102361.47
2023-02-12T20:28:49.010Z,102361.03
2023-02-12T20:31:25.620Z,102358.34
2023-02-12T20:34:02.244Z,102361.03
2023-02-12T20:36:36.639Z,102366.47
2023-02-12T20:39:05.872Z,102364.34
2023-02-12T20:41:34.797Z,102361.72
2023-02-12T20:44:01.734Z,102369.84
2023-02-12T20:46:29.245Z,102359.53
2023-02-12T20:48:57.567Z,102368.94
2023-02-12T20:51:27.391Z,102368.09
2023-02-12T20:53:55.597Z,102365.84
2023-02-12T20:56:28.593Z,102366.03
2023-02-12T20:58:56.158Z,102367.00
2023-02-12T21:01:31.627Z,102365.84
2023-02-12T21:04:07.933Z,102367.97
2023-02-12T21:06:35.521Z,102366.38
2023-02-12T21:09:02.638Z,102361.03
2023-02-12T21:11:30.309Z,102365.25
2023-02-12T21:14:18.458Z,102357.94
2023-02-12T21:16:46.330Z,102360.47
2023-02-12T21:19:16.950Z,102355.47
2023-02-12T21:21:45.309Z,102353.63
2023-02-12T21:24:17.469Z,102348.34
2023-02-12T21:26:44.746Z,102352.13
2023-02-12T21:29:11.669Z,102357.34
2023-02-12T21:31:42.514Z,102355.13
2023-02-12T21:34:14.955Z,102356.16
2023-02-12T21:36:45.169Z,102357.34
2023-02-12T21:39:15.780Z,102348.97
2023-02-12T21:41:43.691Z,102349.28
2023-02-12T21:44:17.377Z,102359.25
2023-02-12T21:46:45.192Z,102355.78
2023-02-12T21:49:14.171Z,102359.25
2023-02-12T21:51:44.359Z,102363.91
2023-02-12T21:54:15.535Z,102367.94
2023-02-12T21:56:44.716Z,102371.81
2023-02-12T21:59:13.441Z,102364.47
2023-02-12T22:01:50.654Z,102361.22
2023-02-12T22:04:18.889Z,102360.59
2023-02-12T22:06:50.279Z,102357.69
2023-02-12T22:09:20.547Z,102349.69
2023-02-12T22:11:47.593Z,102363.84
2023-02-12T22:14:17.466Z,102375.81
2023-02-12T22:16:45.214Z,102377.69
2023-02-12T22:19:12.413Z,102371.97
2023-02-12T22:21:41.981Z,102379.59
2023-02-12T22:24:15.751Z,102376.69
2023-02-12T22:26:44.051Z,102370.19
2023-02-12T22:29:13.785Z,102371.03
2023-02-12T22:31:43.859Z,102370.72
2023-02-12T22:34:14.445Z,102373.25
2023-02-12T22:36:42.529Z,102374.88
2023-02-12T22:39:12.989Z,102377.97
2023-02-12T22:41:41.907Z,102381.22
2023-02-12T22:44:12.212Z,102381.25
2023-02-12T22:46:40.124Z,102376.91
2023-02-12T22:49:07.022Z,102378.81
2023-02-12T22:51:35.922Z,102377.34
2023-02-12T22:54:03.417Z,102378.34
2023-02-12T22:56:30.376Z,102376.56
2023-02-12T22:59:01.094Z,102373.09
2023-02-12T23:01:29.578Z,102386.25
2023-02-12T23:03:57.319Z,102389.78
2023-02-12T23:06:28.223Z,102385.31
2023-02-12T23:09:01.850Z,102389.78
2023-02-12T23:11:30.911Z,102394.44
2023-02-12T23:13:58.204Z,102387.06
2023-02-12T23:16:25.738Z,102397.56
2023-02-12T23:18:58.172Z,102385.53
2023-02-12T23:21:27.293Z,102389.91
2023-02-12T23:23:55.554Z,102385.59
2023-02-12T23:26:23.154Z,102384.31
2023-02-12T23:28:50.165Z,102382.28
2023-02-12T23:31:17.290Z,102380.06
2023-02-12T23:33:44.258Z,102377.13
2023-02-12T23:36:11.259Z,102375.97
2023-02-12T23:38:38.179Z,102379.63
2023-02-12T23:41:05.506Z,102383.78
2023-02-12T23:43:35.496Z,102373.59
2023-02-12T23:46:02.551Z,102376.38
2023-02-12T23:48:29.633Z,102369.81
2023-02-12T23:50:56.872Z,102373.00
2023-02-12T23:53:23.857Z,102374.53
2023-02-12T23:55:51.340Z,102373.50
2023-02-12T23:58:18.428Z,102371.88
